Terminal Aerodrome Forecast
Issued by NWS Cleveland, OH

Home | Current Version | Previous Version | Text Only | Print | Product List | Glossary On
Versions: 1 2 3 4 5 6 7 8 9 10 11 12 13 14 15 16 17 18 19 20 21 22 23 24 25 26
000
FTUS41 KCLE 260100 AAB
TAFYNG
TAF AMD
KYNG 260132Z 2602/2624 04011KT 2SM -SN BR OVC030
      TEMPO 2602/2606 1SM -SN BR OVC012
     FM260600 04010KT 1SM -SN BR OVC008
      TEMPO 2606/2610 3/4SM -SN BR OVC006
     FM261400 04012KT 2SM -SN BR OVC010
     FM262000 01010KT 3SM -SN OVC015=

USA.gov is the U.S. government's official web portal to all federal, state and local government web resources and services.